sensor_id;sensor_type;location;lat;lon;timestamp;pressure;altitude;pressure_sealevel;temperature;humidity
65760;BME280;52496;51.082;5.066;2023-09-30T00:01:12;102453.69;;;10.61;100.00
65760;BME280;52496;51.082;5.066;2023-09-30T00:03:45;102453.56;;;10.63;100.00
65760;BME280;52496;51.082;5.066;2023-09-30T00:06:15;102449.88;;;10.64;100.00
65760;BME280;52496;51.082;5.066;2023-09-30T00:08:46;102465.94;;;10.64;100.00
65760;BME280;52496;51.082;5.066;2023-09-30T00:11:17;102459.75;;;10.63;100.00
65760;BME280;52496;51.082;5.066;2023-09-30T00:13:47;102458.06;;;10.62;100.00
65760;BME280;52496;51.082;5.066;2023-09-30T00:16:19;102441.13;;;10.62;100.00
65760;BME280;52496;51.082;5.066;2023-09-30T00:18:49;102441.13;;;10.62;100.00
65760;BME280;52496;51.082;5.066;2023-09-30T00:21:21;102435.13;;;10.60;100.00
65760;BME280;52496;51.082;5.066;2023-09-30T00:23:51;102430.72;;;10.59;100.00
65760;BME280;52496;51.082;5.066;2023-09-30T00:26:21;102431.59;;;10.59;100.00
65760;BME280;52496;51.082;5.066;2023-09-30T00:28:52;102437.63;;;10.61;100.00
65760;BME280;52496;51.082;5.066;2023-09-30T00:31:22;102439.47;;;10.61;100.00
65760;BME280;52496;51.082;5.066;2023-09-30T00:33:53;102437.63;;;10.61;100.00
65760;BME280;52496;51.082;5.066;2023-09-30T00:36:25;102443.81;;;10.62;100.00
65760;BME280;52496;51.082;5.066;2023-09-30T00:38:55;102457.19;;;10.62;100.00
65760;BME280;52496;51.082;5.066;2023-09-30T00:41:25;102464.53;;;10.60;100.00
65760;BME280;52496;51.082;5.066;2023-09-30T00:43:56;102464.53;;;10.60;100.00
65760;BME280;52496;51.082;5.066;2023-09-30T00:46:31;102462.84;;;10.59;100.00
65760;BME280;52496;51.082;5.066;2023-09-30T00:49:02;102462.16;;;10.56;100.00
65760;BME280;52496;51.082;5.066;2023-09-30T00:51:33;102468.63;;;10.54;100.00
65760;BME280;52496;51.082;5.066;2023-09-30T00:54:03;102486.53;;;10.53;100.00
65760;BME280;52496;51.082;5.066;2023-09-30T00:56:43;102477.78;;;10.51;100.00
65760;BME280;52496;51.082;5.066;2023-09-30T00:59:14;102471.03;;;10.47;100.00
65760;BME280;52496;51.082;5.066;2023-09-30T01:01:45;102457.81;;;10.46;100.00
65760;BME280;52496;51.082;5.066;2023-09-30T01:04:17;102459.78;;;10.44;100.00
65760;BME280;52496;51.082;5.066;2023-09-30T01:06:48;102468.94;;;10.41;100.00
65760;BME280;52496;51.082;5.066;2023-09-30T01:09:20;102472.03;;;10.37;100.00
65760;BME280;52496;51.082;5.066;2023-09-30T01:11:50;102473.88;;;10.36;100.00
65760;BME280;52496;51.082;5.066;2023-09-30T01:14:28;102476.53;;;10.36;100.00
65760;BME280;52496;51.082;5.066;2023-09-30T01:16:59;102486.25;;;10.37;100.00
65760;BME280;52496;51.082;5.066;2023-09-30T01:19:29;102483.72;;;10.36;100.00
65760;BME280;52496;51.082;5.066;2023-09-30T01:22:00;102477.84;;;10.32;100.00
65760;BME280;52496;51.082;5.066;2023-09-30T01:24:42;102483.31;;;10.30;100.00
65760;BME280;52496;51.082;5.066;2023-09-30T01:27:12;102483.47;;;10.29;100.00
65760;BME280;52496;51.082;5.066;2023-09-30T01:29:43;102470.22;;;10.27;100.00
65760;BME280;52496;51.082;5.066;2023-09-30T01:32:14;102473.03;;;10.26;100.00
65760;BME280;52496;51.082;5.066;2023-09-30T01:34:44;102472.31;;;10.24;100.00
65760;BME280;52496;51.082;5.066;2023-09-30T01:37:15;102474.28;;;10.22;100.00
65760;BME280;52496;51.082;5.066;2023-09-30T01:39:46;102487.91;;;10.19;100.00
65760;BME280;52496;51.082;5.066;2023-09-30T01:42:16;102486.53;;;10.15;100.00
65760;BME280;52496;51.082;5.066;2023-09-30T01:44:47;102486.81;;;10.11;100.00
65760;BME280;52496;51.082;5.066;2023-09-30T01:47:18;102489.59;;;10.10;100.00
65760;BME280;52496;51.082;5.066;2023-09-30T01:49:48;102481.03;;;10.06;100.00
65760;BME280;52496;51.082;5.066;2023-09-30T01:52:20;102484.00;;;10.03;100.00
65760;BME280;52496;51.082;5.066;2023-09-30T01:54:50;102487.78;;;10.01;100.00
65760;BME280;52496;51.082;5.066;2023-09-30T01:57:22;102484.56;;;9.97;100.00
65760;BME280;52496;51.082;5.066;2023-09-30T01:59:52;102486.53;;;9.95;100.00
65760;BME280;52496;51.082;5.066;2023-09-30T02:02:23;102490.19;;;9.94;100.00
65760;BME280;52496;51.082;5.066;2023-09-30T02:04:53;102490.47;;;9.91;100.00
65760;BME280;52496;51.082;5.066;2023-09-30T02:07:24;102494.13;;;9.90;100.00
65760;BME280;52496;51.082;5.066;2023-09-30T02:09:54;102489.06;;;9.87;100.00
65760;BME280;52496;51.082;5.066;2023-09-30T02:12:27;102484.72;;;9.86;100.00
65760;BME280;52496;51.082;5.066;2023-09-30T02:14:58;102490.19;;;9.84;100.00
65760;BME280;52496;51.082;5.066;2023-09-30T02:17:29;102485.94;;;9.82;100.00
65760;BME280;52496;51.082;5.066;2023-09-30T02:19:59;102489.75;;;9.79;100.00
65760;BME280;52496;51.082;5.066;2023-09-30T02:22:31;102485.50;;;9.77;100.00
65760;BME280;52496;51.082;5.066;2023-09-30T02:25:03;102483.13;;;9.74;100.00
65760;BME280;52496;51.082;5.066;2023-09-30T02:27:38;102494.78;;;9.73;100.00
65760;BME280;52496;51.082;5.066;2023-09-30T02:30:09;102491.41;;;9.71;100.00
65760;BME280;52496;51.082;5.066;2023-09-30T02:32:40;102491.00;;;9.65;100.00
65760;BME280;52496;51.082;5.066;2023-09-30T02:35:11;102505.31;;;9.64;100.00
65760;BME280;52496;51.082;5.066;2023-09-30T02:37:41;102503.78;;;9.62;100.00
65760;BME280;52496;51.082;5.066;2023-09-30T02:40:12;102491.28;;;9.62;100.00
65760;BME280;52496;51.082;5.066;2023-09-30T02:42:45;102482.53;;;9.60;100.00
65760;BME280;52496;51.082;5.066;2023-09-30T02:45:16;102482.69;;;9.59;100.00
65760;BME280;52496;51.082;5.066;2023-09-30T02:47:47;102484.50;;;9.58;100.00
65760;BME280;52496;51.082;5.066;2023-09-30T02:50:18;102500.25;;;9.61;100.00
65760;BME280;52496;51.082;5.066;2023-09-30T02:52:48;102493.22;;;9.60;100.00
65760;BME280;52496;51.082;5.066;2023-09-30T02:55:20;102501.13;;;9.62;100.00
65760;BME280;52496;51.082;5.066;2023-09-30T02:57:50;102500.25;;;9.61;100.00
65760;BME280;52496;51.082;5.066;2023-09-30T03:00:21;102505.59;;;9.61;100.00
65760;BME280;52496;51.082;5.066;2023-09-30T03:02:56;102507.31;;;9.62;100.00
65760;BME280;52496;51.082;5.066;2023-09-30T03:05:27;102501.13;;;9.62;100.00
65760;BME280;52496;51.082;5.066;2023-09-30T03:07:58;102482.28;;;9.63;100.00
65760;BME280;52496;51.082;5.066;2023-09-30T03:10:30;102488.34;;;9.65;100.00
65760;BME280;52496;51.082;5.066;2023-09-30T03:13:01;102485.66;;;9.65;100.00
65760;BME280;52496;51.082;5.066;2023-09-30T03:15:31;102480.31;;;9.65;100.00
65760;BME280;52496;51.082;5.066;2023-09-30T03:18:02;102482.97;;;9.65;100.00
65760;BME280;52496;51.082;5.066;2023-09-30T03:20:33;102489.00;;;9.68;100.00
65760;BME280;52496;51.082;5.066;2023-09-30T03:23:04;102487.34;;;9.67;100.00
65760;BME280;52496;51.082;5.066;2023-09-30T03:25:34;102474.97;;;9.65;100.00
65760;BME280;52496;51.082;5.066;2023-09-30T03:28:05;102466.25;;;9.63;100.00
65760;BME280;52496;51.082;5.066;2023-09-30T03:30:36;102462.84;;;9.61;100.00
65760;BME280;52496;51.082;5.066;2023-09-30T03:33:07;102464.84;;;9.59;100.00
65760;BME280;52496;51.082;5.066;2023-09-30T03:35:37;102470.47;;;9.56;100.00
65760;BME280;52496;51.082;5.066;2023-09-30T03:38:08;102469.63;;;9.56;100.00
65760;BME280;52496;51.082;5.066;2023-09-30T03:40:40;102474.09;;;9.55;100.00
65760;BME280;52496;51.082;5.066;2023-09-30T03:43:15;102481.41;;;9.53;100.00
65760;BME280;52496;51.082;5.066;2023-09-30T03:45:45;102493.22;;;9.51;100.00
65760;BME280;52496;51.082;5.066;2023-09-30T03:48:16;102492.38;;;9.50;100.00
65760;BME280;52496;51.082;5.066;2023-09-30T03:50:49;102478.31;;;9.48;100.00
65760;BME280;52496;51.082;5.066;2023-09-30T03:53:19;102470.28;;;9.48;100.00
65760;BME280;52496;51.082;5.066;2023-09-30T03:55:50;102463.97;;;9.49;100.00
65760;BME280;52496;51.082;5.066;2023-09-30T03:58:20;102464.94;;;9.48;100.00
65760;BME280;52496;51.082;5.066;2023-09-30T04:00:51;102476.34;;;9.50;100.00
65760;BME280;52496;51.082;5.066;2023-09-30T04:03:22;102478.03;;;9.51;100.00
65760;BME280;52496;51.082;5.066;2023-09-30T04:05:53;102473.81;;;9.49;100.00
65760;BME280;52496;51.082;5.066;2023-09-30T04:08:23;102476.34;;;9.50;100.00
65760;BME280;52496;51.082;5.066;2023-09-30T04:10:54;102475.50;;;9.50;100.00
65760;BME280;52496;51.082;5.066;2023-09-30T04:13:24;102475.50;;;9.50;100.00
65760;BME280;52496;51.082;5.066;2023-09-30T04:15:55;102478.31;;;9.48;100.00
65760;BME280;52496;51.082;5.066;2023-09-30T04:18:28;102475.78;;;9.47;100.00
65760;BME280;52496;51.082;5.066;2023-09-30T04:20:58;102466.22;;;9.44;100.00
65760;BME280;52496;51.082;5.066;2023-09-30T04:23:29;102467.06;;;9.45;100.00
65760;BME280;52496;51.082;5.066;2023-09-30T04:26:00;102474.22;;;9.44;100.00
65760;BME280;52496;51.082;5.066;2023-09-30T04:28:30;102460.16;;;9.42;100.00
65760;BME280;52496;51.082;5.066;2023-09-30T04:31:01;102457.50;;;9.42;100.00
65760;BME280;52496;51.082;5.066;2023-09-30T04:33:33;102461.00;;;9.42;100.00
65760;BME280;52496;51.082;5.066;2023-09-30T04:36:06;102471.00;;;9.40;100.00
65760;BME280;52496;51.082;5.066;2023-09-30T04:38:39;102474.63;;;9.39;100.00
65760;BME280;52496;51.082;5.066;2023-09-30T04:41:09;102478.28;;;9.38;100.00
65760;BME280;52496;51.082;5.066;2023-09-30T04:43:40;102481.94;;;9.37;100.00
65760;BME280;52496;51.082;5.066;2023-09-30T04:46:11;102476.72;;;9.36;100.00
65760;BME280;52496;51.082;5.066;2023-09-30T04:48:42;102475.16;;;9.33;100.00
65760;BME280;52496;51.082;5.066;2023-09-30T04:51:13;102472.66;;;9.32;100.00
65760;BME280;52496;51.082;5.066;2023-09-30T04:53:46;102474.59;;;9.30;100.00
65760;BME280;52496;51.082;5.066;2023-09-30T04:56:17;102480.94;;;9.29;100.00
65760;BME280;52496;51.082;5.066;2023-09-30T04:58:47;102483.88;;;9.26;100.00
65760;BME280;52496;51.082;5.066;2023-09-30T05:01:17;102490.16;;;9.25;100.00
65760;BME280;52496;51.082;5.066;2023-09-30T05:03:48;102491.16;;;9.24;100.00
65760;BME280;52496;51.082;5.066;2023-09-30T05:06:20;102486.66;;;9.24;100.00
65760;BME280;52496;51.082;5.066;2023-09-30T05:08:51;102491.72;;;9.27;100.00
65760;BME280;52496;51.082;5.066;2023-09-30T05:11:21;102490.78;;;9.28;100.00
65760;BME280;52496;51.082;5.066;2023-09-30T05:13:52;102479.94;;;9.30;100.00
65760;BME280;52496;51.082;5.066;2023-09-30T05:16:22;102494.00;;;9.32;100.00
65760;BME280;52496;51.082;5.066;2023-09-30T05:18:53;102493.75;;;9.35;100.00
65760;BME280;52496;51.082;5.066;2023-09-30T05:21:23;102506.94;;;9.36;100.00
65760;BME280;52496;51.082;5.066;2023-09-30T05:23:53;102506.81;;;9.38;100.00
65760;BME280;52496;51.082;5.066;2023-09-30T05:26:24;102508.66;;;9.37;100.00
65760;BME280;52496;51.082;5.066;2023-09-30T05:28:54;102505.09;;;9.37;100.00
65760;BME280;52496;51.082;5.066;2023-09-30T05:31:25;102502.72;;;9.34;100.00
65760;BME280;52496;51.082;5.066;2023-09-30T05:33:55;102503.84;;;9.31;100.00
65760;BME280;52496;51.082;5.066;2023-09-30T05:36:26;102516.22;;;9.32;100.00
65760;BME280;52496;51.082;5.066;2023-09-30T05:38:56;102511.44;;;9.36;100.00
65760;BME280;52496;51.082;5.066;2023-09-30T05:41:27;102507.50;;;9.40;100.00
65760;BME280;52496;51.082;5.066;2023-09-30T05:43:58;102501.22;;;9.41;100.00
65760;BME280;52496;51.082;5.066;2023-09-30T05:46:30;102494.59;;;9.45;100.00
65760;BME280;52496;51.082;5.066;2023-09-30T05:49:01;102513.88;;;9.49;100.00
65760;BME280;52496;51.082;5.066;2023-09-30T05:51:32;102517.09;;;9.52;100.00
65760;BME280;52496;51.082;5.066;2023-09-30T05:54:04;102506.13;;;9.55;100.00
65760;BME280;52496;51.082;5.066;2023-09-30T05:56:36;102508.69;;;9.57;100.00
65760;BME280;52496;51.082;5.066;2023-09-30T05:59:07;102521.78;;;9.60;100.00
65760;BME280;52496;51.082;5.066;2023-09-30T06:01:38;102520.50;;;9.64;100.00
65760;BME280;52496;51.082;5.066;2023-09-30T06:04:09;102530.91;;;9.67;100.00
65760;BME280;52496;51.082;5.066;2023-09-30T06:06:41;102538.53;;;9.72;100.00
65760;BME280;52496;51.082;5.066;2023-09-30T06:09:13;102539.66;;;9.79;100.00
65760;BME280;52496;51.082;5.066;2023-09-30T06:11:43;102534.03;;;9.82;100.00
65760;BME280;52496;51.082;5.066;2023-09-30T06:14:14;102525.91;;;9.83;100.00
65760;BME280;52496;51.082;5.066;2023-09-30T06:16:44;102516.91;;;9.84;100.00
65760;BME280;52496;51.082;5.066;2023-09-30T06:19:15;102512.13;;;9.88;100.00
65760;BME280;52496;51.082;5.066;2023-09-30T06:21:46;102508.19;;;9.92;100.00
65760;BME280;52496;51.082;5.066;2023-09-30T06:24:17;102510.31;;;9.98;100.00
65760;BME280;52496;51.082;5.066;2023-09-30T06:26:50;102515.78;;;10.06;100.00
65760;BME280;52496;51.082;5.066;2023-09-30T06:29:21;102523.25;;;10.13;100.00
65760;BME280;52496;51.082;5.066;2023-09-30T06:31:52;102524.22;;;10.21;100.00
65760;BME280;52496;51.082;5.066;2023-09-30T06:34:22;102523.69;;;10.27;100.00
65760;BME280;52496;51.082;5.066;2023-09-30T06:36:53;102528.47;;;10.33;100.00
65760;BME280;52496;51.082;5.066;2023-09-30T06:39:24;102531.44;;;10.40;100.00
65760;BME280;52496;51.082;5.066;2023-09-30T06:41:54;102535.09;;;10.49;100.00
65760;BME280;52496;51.082;5.066;2023-09-30T06:44:25;102532.69;;;10.55;100.00
65760;BME280;52496;51.082;5.066;2023-09-30T06:46:55;102529.44;;;10.62;100.00
65760;BME280;52496;51.082;5.066;2023-09-30T06:49:25;102537.47;;;10.71;100.00
65760;BME280;52496;51.082;5.066;2023-09-30T06:51:56;102536.03;;;10.77;100.00
65760;BME280;52496;51.082;5.066;2023-09-30T06:54:26;102552.09;;;10.87;100.00
65760;BME280;52496;51.082;5.066;2023-09-30T06:56:57;102566.13;;;10.98;100.00
65760;BME280;52496;51.082;5.066;2023-09-30T06:59:27;102560.75;;;11.08;100.00
65760;BME280;52496;51.082;5.066;2023-09-30T07:01:58;102557.34;;;11.16;100.00
65760;BME280;52496;51.082;5.066;2023-09-30T07:04:29;102568.88;;;11.26;100.00
65760;BME280;52496;51.082;5.066;2023-09-30T07:07:00;102580.69;;;11.33;100.00
65760;BME280;52496;51.082;5.066;2023-09-30T07:09:30;102593.19;;;11.42;100.00
65760;BME280;52496;51.082;5.066;2023-09-30T07:12:01;102602.03;;;11.53;100.00
65760;BME280;52496;51.082;5.066;2023-09-30T07:14:31;102604.81;;;11.61;100.00
65760;BME280;52496;51.082;5.066;2023-09-30T07:17:02;102597.03;;;11.67;100.00
65760;BME280;52496;51.082;5.066;2023-09-30T07:19:34;102598.25;;;11.73;100.00
65760;BME280;52496;51.082;5.066;2023-09-30T07:22:06;102597.38;;;11.82;100.00
65760;BME280;52496;51.082;5.066;2023-09-30T07:24:36;102596.50;;;11.91;100.00
65760;BME280;52496;51.082;5.066;2023-09-30T07:27:07;102605.31;;;12.02;100.00
65760;BME280;52496;51.082;5.066;2023-09-30T07:29:37;102608.81;;;12.12;100.00
65760;BME280;52496;51.082;5.066;2023-09-30T07:32:08;102600.50;;;12.23;100.00
65760;BME280;52496;51.082;5.066;2023-09-30T07:34:39;102604.97;;;12.32;100.00
65760;BME280;52496;51.082;5.066;2023-09-30T07:37:10;102614.63;;;12.43;100.00
65760;BME280;52496;51.082;5.066;2023-09-30T07:39:40;102612.88;;;12.52;100.00
65760;BME280;52496;51.082;5.066;2023-09-30T07:42:11;102613.63;;;12.62;100.00
65760;BME280;52496;51.082;5.066;2023-09-30T07:44:42;102611.72;;;12.72;100.00
65760;BME280;52496;51.082;5.066;2023-09-30T07:47:12;102612.47;;;12.82;100.00
65760;BME280;52496;51.082;5.066;2023-09-30T07:49:43;102631.84;;;12.94;100.00
65760;BME280;52496;51.082;5.066;2023-09-30T07:52:13;102630.44;;;13.08;100.00
65760;BME280;52496;51.082;5.066;2023-09-30T07:54:43;102630.88;;;13.21;100.00
65760;BME280;52496;51.082;5.066;2023-09-30T07:57:14;102623.56;;;13.31;100.00
65760;BME280;52496;51.082;5.066;2023-09-30T07:59:45;102621.59;;;13.42;100.00
65760;BME280;52496;51.082;5.066;2023-09-30T08:02:15;102628.06;;;13.57;100.00
65760;BME280;52496;51.082;5.066;2023-09-30T08:04:46;102623.75;;;13.72;100.00
65760;BME280;52496;51.082;5.066;2023-09-30T08:07:16;102612.41;;;13.87;100.00
65760;BME280;52496;51.082;5.066;2023-09-30T08:09:47;102616.13;;;14.02;100.00
65760;BME280;52496;51.082;5.066;2023-09-30T08:12:18;102619.38;;;14.14;100.00
65760;BME280;52496;51.082;5.066;2023-09-30T08:14:48;102609.13;;;14.26;100.00
65760;BME280;52496;51.082;5.066;2023-09-30T08:17:19;102620.44;;;14.37;100.00
65760;BME280;52496;51.082;5.066;2023-09-30T08:19:49;102608.47;;;14.48;100.00
65760;BME280;52496;51.082;5.066;2023-09-30T08:22:20;102602.81;;;14.59;100.00
65760;BME280;52496;51.082;5.066;2023-09-30T08:24:51;102606.16;;;14.69;100.00
65760;BME280;52496;51.082;5.066;2023-09-30T08:27:22;102614.41;;;14.84;100.00
65760;BME280;52496;51.082;5.066;2023-09-30T08:29:54;102622.16;;;14.96;100.00
65760;BME280;52496;51.082;5.066;2023-09-30T08:32:25;102623.47;;;15.08;100.00
65760;BME280;52496;51.082;5.066;2023-09-30T08:34:55;102616.72;;;15.12;100.00
65760;BME280;52496;51.082;5.066;2023-09-30T08:37:26;102606.13;;;15.19;100.00
65760;BME280;52496;51.082;5.066;2023-09-30T08:39:56;102596.31;;;15.34;100.00
65760;BME280;52496;51.082;5.066;2023-09-30T08:42:27;102600.81;;;15.50;100.00
65760;BME280;52496;51.082;5.066;2023-09-30T08:45:04;102601.56;;;15.67;100.00
65760;BME280;52496;51.082;5.066;2023-09-30T08:47:36;102591.75;;;15.82;100.00
65760;BME280;52496;51.082;5.066;2023-09-30T08:50:08;102592.69;;;15.97;100.00
65760;BME280;52496;51.082;5.066;2023-09-30T08:52:41;102600.50;;;16.15;100.00
65760;BME280;52496;51.082;5.066;2023-09-30T08:55:13;102596.19;;;16.29;100.00
65760;BME280;52496;51.082;5.066;2023-09-30T08:57:44;102595.06;;;16.46;100.00
65760;BME280;52496;51.082;5.066;2023-09-30T09:00:14;102603.75;;;16.57;100.00
65760;BME280;52496;51.082;5.066;2023-09-30T09:02:46;102599.22;;;16.72;100.00
65760;BME280;52496;51.082;5.066;2023-09-30T09:05:17;102601.81;;;16.88;100.00
65760;BME280;52496;51.082;5.066;2023-09-30T09:07:47;102594.94;;;17.01;100.00
65760;BME280;52496;51.082;5.066;2023-09-30T09:10:18;102593.00;;;17.09;100.00
65760;BME280;52496;51.082;5.066;2023-09-30T09:12:56;102593.00;;;17.24;100.00
65760;BME280;52496;51.082;5.066;2023-09-30T09:15:28;102602.63;;;17.41;100.00
65760;BME280;52496;51.082;5.066;2023-09-30T09:17:59;102605.31;;;17.56;100.00
65760;BME280;52496;51.082;5.066;2023-09-30T09:20:29;102615.47;;;17.69;100.00
65760;BME280;52496;51.082;5.066;2023-09-30T09:23:00;102623.53;;;17.77;100.00
65760;BME280;52496;51.082;5.066;2023-09-30T09:25:38;102623.66;;;17.91;100.00
65760;BME280;52496;51.082;5.066;2023-09-30T09:28:09;102621.94;;;18.04;100.00
65760;BME280;52496;51.082;5.066;2023-09-30T09:30:39;102635.19;;;18.14;100.00
65760;BME280;52496;51.082;5.066;2023-09-30T09:33:11;102637.22;;;18.27;100.00
65760;BME280;52496;51.082;5.066;2023-09-30T09:35:47;102643.41;;;18.42;100.00
65760;BME280;52496;51.082;5.066;2023-09-30T09:38:18;102643.75;;;18.54;100.00
65760;BME280;52496;51.082;5.066;2023-09-30T09:40:48;102646.50;;;18.61;100.00
65760;BME280;52496;51.082;5.066;2023-09-30T09:43:19;102649.53;;;18.72;100.00
65760;BME280;52496;51.082;5.066;2023-09-30T09:45:50;102654.25;;;18.85;100.00
65760;BME280;52496;51.082;5.066;2023-09-30T09:48:21;102649.16;;;18.97;100.00
65760;BME280;52496;51.082;5.066;2023-09-30T09:50:52;102651.13;;;19.10;100.00
65760;BME280;52496;51.082;5.066;2023-09-30T09:53:24;102647.88;;;19.21;100.00
65760;BME280;52496;51.082;5.066;2023-09-30T09:55:56;102648.75;;;19.28;100.00
65760;BME280;52496;51.082;5.066;2023-09-30T09:58:32;102637.13;;;19.41;100.00
65760;BME280;52496;51.082;5.066;2023-09-30T10:01:05;102635.53;;;19.53;100.00
65760;BME280;52496;51.082;5.066;2023-09-30T10:03:38;102633.97;;;19.65;100.00
65760;BME280;52496;51.082;5.066;2023-09-30T10:06:08;102645.72;;;19.79;100.00
65760;BME280;52496;51.082;5.066;2023-09-30T10:08:43;102641.81;;;19.88;100.00
65760;BME280;52496;51.082;5.066;2023-09-30T10:11:19;102645.84;;;20.12;100.00
65760;BME280;52496;51.082;5.066;2023-09-30T10:13:55;102639.63;;;20.38;100.00
65760;BME280;52496;51.082;5.066;2023-09-30T10:19:11;102649.13;;;20.96;100.00
65760;BME280;52496;51.082;5.066;2023-09-30T10:24:51;102641.34;;;21.39;100.00
65760;BME280;52496;51.082;5.066;2023-09-30T10:35:42;102637.53;;;21.53;100.00
65760;BME280;52496;51.082;5.066;2023-09-30T10:40:53;102633.25;;;21.84;100.00
65760;BME280;52496;51.082;5.066;2023-09-30T10:43:38;102633.72;;;21.74;100.00
65760;BME280;52496;51.082;5.066;2023-09-30T10:49:29;102631.06;;;21.48;100.00
65760;BME280;52496;51.082;5.066;2023-09-30T10:52:02;102625.88;;;21.20;100.00
65760;BME280;52496;51.082;5.066;2023-09-30T10:54:32;102623.81;;;20.95;100.00
65760;BME280;52496;51.082;5.066;2023-09-30T10:57:03;102624.88;;;20.68;100.00
65760;BME280;52496;51.082;5.066;2023-09-30T10:59:34;102619.38;;;20.48;100.00
65760;BME280;52496;51.082;5.066;2023-09-30T11:02:18;102607.84;;;20.32;100.00
65760;BME280;52496;51.082;5.066;2023-09-30T11:04:49;102613.69;;;20.23;100.00
65760;BME280;52496;51.082;5.066;2023-09-30T11:07:22;102610.75;;;20.17;100.00
65760;BME280;52496;51.082;5.066;2023-09-30T11:09:54;102604.69;;;20.15;100.00
65760;BME280;52496;51.082;5.066;2023-09-30T11:12:25;102598.22;;;20.10;100.00
65760;BME280;52496;51.082;5.066;2023-09-30T11:15:01;102596.97;;;20.06;100.00
65760;BME280;52496;51.082;5.066;2023-09-30T11:17:31;102603.00;;;20.01;100.00
65760;BME280;52496;51.082;5.066;2023-09-30T11:20:04;102600.69;;;19.98;100.00
65760;BME280;52496;51.082;5.066;2023-09-30T11:22:36;102601.50;;;19.92;100.00
65760;BME280;52496;51.082;5.066;2023-09-30T11:25:15;102604.44;;;19.97;100.00
65760;BME280;52496;51.082;5.066;2023-09-30T11:27:46;102588.16;;;19.97;100.00
65760;BME280;52496;51.082;5.066;2023-09-30T11:30:17;102579.78;;;19.92;100.00
65760;BME280;52496;51.082;5.066;2023-09-30T11:32:58;102583.53;;;19.91;100.00
65760;BME280;52496;51.082;5.066;2023-09-30T11:35:30;102587.28;;;19.90;100.00
65760;BME280;52496;51.082;5.066;2023-09-30T11:38:00;102581.84;;;19.90;100.00
65760;BME280;52496;51.082;5.066;2023-09-30T11:40:31;102592.09;;;19.88;100.00
65760;BME280;52496;51.082;5.066;2023-09-30T11:43:09;102593.53;;;19.84;100.00
65760;BME280;52496;51.082;5.066;2023-09-30T11:45:42;102587.66;;;19.80;100.00
65760;BME280;52496;51.082;5.066;2023-09-30T11:48:19;102591.84;;;19.76;100.00
65760;BME280;52496;51.082;5.066;2023-09-30T11:50:50;102584.34;;;19.78;100.00
65760;BME280;52496;51.082;5.066;2023-09-30T11:53:24;102580.56;;;19.73;100.00
65760;BME280;52496;51.082;5.066;2023-09-30T11:55:55;102577.59;;;19.67;100.00
65760;BME280;52496;51.082;5.066;2023-09-30T11:58:26;102569.69;;;19.73;100.00
65760;BME280;52496;51.082;5.066;2023-09-30T12:00:58;102561.75;;;19.78;100.00
65760;BME280;52496;51.082;5.066;2023-09-30T12:03:29;102553.84;;;19.83;100.00
65760;BME280;52496;51.082;5.066;2023-09-30T12:06:00;102548.66;;;19.81;100.00
65760;BME280;52496;51.082;5.066;2023-09-30T12:08:31;102552.44;;;20.00;100.00
65760;BME280;52496;51.082;5.066;2023-09-30T12:11:02;102551.66;;;20.33;100.00
65760;BME280;52496;51.082;5.066;2023-09-30T12:13:32;102553.13;;;20.42;100.00
65760;BME280;52496;51.082;5.066;2023-09-30T12:16:03;102560.00;;;20.38;100.00
65760;BME280;52496;51.082;5.066;2023-09-30T12:18:33;102560.19;;;20.23;100.00
65760;BME280;52496;51.082;5.066;2023-09-30T12:21:04;102554.34;;;20.13;100.00
65760;BME280;52496;51.082;5.066;2023-09-30T12:23:37;102560.59;;;20.13;100.00
65760;BME280;52496;51.082;5.066;2023-09-30T12:26:08;102556.84;;;20.14;100.00
65760;BME280;52496;51.082;5.066;2023-09-30T12:28:38;102546.81;;;20.15;100.00
65760;BME280;52496;51.082;5.066;2023-09-30T12:31:11;102542.84;;;20.17;100.00
65760;BME280;52496;51.082;5.066;2023-09-30T12:33:41;102538.88;;;20.20;100.00
65760;BME280;52496;51.082;5.066;2023-09-30T12:36:12;102533.44;;;20.27;100.00
65760;BME280;52496;51.082;5.066;2023-09-30T12:38:43;102541.63;;;20.40;100.00
65760;BME280;52496;51.082;5.066;2023-09-30T12:41:14;102549.38;;;20.70;100.00
65760;BME280;52496;51.082;5.066;2023-09-30T12:43:45;102536.75;;;21.02;100.00
65760;BME280;52496;51.082;5.066;2023-09-30T12:46:16;102530.00;;;21.31;100.00
65760;BME280;52496;51.082;5.066;2023-09-30T12:48:48;102523.59;;;21.64;96.18
65760;BME280;52496;51.082;5.066;2023-09-30T12:51:19;102533.88;;;21.93;97.08
65760;BME280;52496;51.082;5.066;2023-09-30T12:53:49;102532.34;;;22.36;89.56
65760;BME280;52496;51.082;5.066;2023-09-30T12:56:20;102517.19;;;22.47;89.99
65760;BME280;52496;51.082;5.066;2023-09-30T12:58:50;102531.81;;;22.52;92.17
65760;BME280;52496;51.082;5.066;2023-09-30T13:01:21;102533.72;;;22.88;88.71
65760;BME280;52496;51.082;5.066;2023-09-30T13:03:52;102536.81;;;22.99;91.84
65760;BME280;52496;51.082;5.066;2023-09-30T13:06:23;102538.88;;;23.03;91.40
65760;BME280;52496;51.082;5.066;2023-09-30T13:08:53;102529.09;;;23.14;85.39
65760;BME280;52496;51.082;5.066;2023-09-30T13:11:24;102527.72;;;23.42;86.83
65760;BME280;52496;51.082;5.066;2023-09-30T13:13:54;102523.59;;;23.51;84.50
65760;BME280;52496;51.082;5.066;2023-09-30T13:16:25;102519.38;;;23.36;81.33
65760;BME280;52496;51.082;5.066;2023-09-30T13:18:56;102520.16;;;23.25;81.24
65760;BME280;52496;51.082;5.066;2023-09-30T13:21:26;102518.91;;;23.40;78.00
65760;BME280;52496;51.082;5.066;2023-09-30T13:23:57;102516.91;;;23.65;79.40